sensor_id;sensor_type;location;lat;lon;timestamp;temperature;humidity
12254;DHT22;6189;52.526;13.390;2023-07-13T00:01:56;23.00;79.70
12254;DHT22;6189;52.526;13.390;2023-07-13T00:04:44;23.10;79.80
12254;DHT22;6189;52.526;13.390;2023-07-13T00:07:31;23.00;79.90
12254;DHT22;6189;52.526;13.390;2023-07-13T00:10:18;22.90;80.40
12254;DHT22;6189;52.526;13.390;2023-07-13T00:13:05;22.90;80.80
12254;DHT22;6189;52.526;13.390;2023-07-13T00:15:52;22.90;80.80
12254;DHT22;6189;52.526;13.390;2023-07-13T00:18:40;22.80;81.00
12254;DHT22;6189;52.526;13.390;2023-07-13T00:21:28;22.80;81.50
12254;DHT22;6189;52.526;13.390;2023-07-13T00:24:16;22.80;81.10
12254;DHT22;6189;52.526;13.390;2023-07-13T00:27:08;22.80;81.40
12254;DHT22;6189;52.526;13.390;2023-07-13T00:29:56;22.80;82.20
12254;DHT22;6189;52.526;13.390;2023-07-13T00:32:43;22.80;81.50
12254;DHT22;6189;52.526;13.390;2023-07-13T00:35:30;22.90;81.40
12254;DHT22;6189;52.526;13.390;2023-07-13T00:38:19;22.90;81.40
12254;DHT22;6189;52.526;13.390;2023-07-13T00:41:06;22.90;81.80
12254;DHT22;6189;52.526;13.390;2023-07-13T00:43:53;22.90;81.60
12254;DHT22;6189;52.526;13.390;2023-07-13T00:46:40;23.00;81.30
12254;DHT22;6189;52.526;13.390;2023-07-13T00:49:27;23.00;81.10
12254;DHT22;6189;52.526;13.390;2023-07-13T00:52:16;23.00;81.30
12254;DHT22;6189;52.526;13.390;2023-07-13T00:55:04;23.00;81.30
12254;DHT22;6189;52.526;13.390;2023-07-13T00:57:51;23.00;81.50
12254;DHT22;6189;52.526;13.390;2023-07-13T01:00:39;23.00;81.40
12254;DHT22;6189;52.526;13.390;2023-07-13T01:03:26;23.00;81.20
12254;DHT22;6189;52.526;13.390;2023-07-13T01:06:13;22.90;81.20
12254;DHT22;6189;52.526;13.390;2023-07-13T01:09:03;23.00;81.80
12254;DHT22;6189;52.526;13.390;2023-07-13T01:11:52;23.00;81.40
12254;DHT22;6189;52.526;13.390;2023-07-13T01:14:39;22.90;81.60
12254;DHT22;6189;52.526;13.390;2023-07-13T01:17:26;22.90;81.80
12254;DHT22;6189;52.526;13.390;2023-07-13T01:20:14;22.90;81.40
12254;DHT22;6189;52.526;13.390;2023-07-13T01:23:02;22.90;81.10
12254;DHT22;6189;52.526;13.390;2023-07-13T01:25:49;22.90;81.60
12254;DHT22;6189;52.526;13.390;2023-07-13T01:28:36;22.90;81.90
12254;DHT22;6189;52.526;13.390;2023-07-13T01:31:23;22.90;81.60
12254;DHT22;6189;52.526;13.390;2023-07-13T01:34:10;22.90;82.30
12254;DHT22;6189;52.526;13.390;2023-07-13T01:36:57;22.90;82.30
12254;DHT22;6189;52.526;13.390;2023-07-13T01:39:46;22.90;81.90
12254;DHT22;6189;52.526;13.390;2023-07-13T01:42:33;22.90;82.20
12254;DHT22;6189;52.526;13.390;2023-07-13T01:45:20;22.90;82.20
12254;DHT22;6189;52.526;13.390;2023-07-13T01:48:07;22.90;82.30
12254;DHT22;6189;52.526;13.390;2023-07-13T01:50:53;22.90;82.20
12254;DHT22;6189;52.526;13.390;2023-07-13T01:53:40;22.90;81.90
12254;DHT22;6189;52.526;13.390;2023-07-13T01:56:29;22.90;82.00
12254;DHT22;6189;52.526;13.390;2023-07-13T01:59:16;22.90;82.80
12254;DHT22;6189;52.526;13.390;2023-07-13T02:02:03;22.90;82.00
12254;DHT22;6189;52.526;13.390;2023-07-13T02:04:50;22.90;82.30
12254;DHT22;6189;52.526;13.390;2023-07-13T02:07:40;22.90;82.00
12254;DHT22;6189;52.526;13.390;2023-07-13T02:10:27;22.90;82.10
12254;DHT22;6189;52.526;13.390;2023-07-13T02:13:15;22.80;82.10
12254;DHT22;6189;52.526;13.390;2023-07-13T02:16:02;22.80;82.20
12254;DHT22;6189;52.526;13.390;2023-07-13T02:18:50;22.80;82.20
12254;DHT22;6189;52.526;13.390;2023-07-13T02:21:37;22.80;82.10
12254;DHT22;6189;52.526;13.390;2023-07-13T02:24:24;22.80;82.00
12254;DHT22;6189;52.526;13.390;2023-07-13T02:27:12;22.80;82.10
12254;DHT22;6189;52.526;13.390;2023-07-13T02:30:01;22.80;82.00
12254;DHT22;6189;52.526;13.390;2023-07-13T02:32:48;22.90;82.20
12254;DHT22;6189;52.526;13.390;2023-07-13T02:35:35;22.80;82.20
12254;DHT22;6189;52.526;13.390;2023-07-13T02:38:22;22.80;83.10
12254;DHT22;6189;52.526;13.390;2023-07-13T02:41:09;22.80;83.30
12254;DHT22;6189;52.526;13.390;2023-07-13T02:43:58;22.70;83.10
12254;DHT22;6189;52.526;13.390;2023-07-13T02:46:50;22.70;83.20
12254;DHT22;6189;52.526;13.390;2023-07-13T02:49:37;22.70;83.90
12254;DHT22;6189;52.526;13.390;2023-07-13T02:52:24;22.60;83.30
12254;DHT22;6189;52.526;13.390;2023-07-13T02:55:11;22.60;84.10
12254;DHT22;6189;52.526;13.390;2023-07-13T02:57:58;22.60;84.10
12254;DHT22;6189;52.526;13.390;2023-07-13T03:00:45;22.60;84.80
12254;DHT22;6189;52.526;13.390;2023-07-13T03:03:34;22.60;84.70
12254;DHT22;6189;52.526;13.390;2023-07-13T03:06:21;22.60;84.90
12254;DHT22;6189;52.526;13.390;2023-07-13T03:09:08;22.60;85.20
12254;DHT22;6189;52.526;13.390;2023-07-13T03:11:55;22.60;85.10
12254;DHT22;6189;52.526;13.390;2023-07-13T03:14:42;22.60;85.20
12254;DHT22;6189;52.526;13.390;2023-07-13T03:17:29;22.60;85.60
12254;DHT22;6189;52.526;13.390;2023-07-13T03:20:18;22.60;85.70
12254;DHT22;6189;52.526;13.390;2023-07-13T03:23:05;22.60;85.50
12254;DHT22;6189;52.526;13.390;2023-07-13T03:26:00;22.60;86.80
12254;DHT22;6189;52.526;13.390;2023-07-13T03:28:47;22.60;85.80
12254;DHT22;6189;52.526;13.390;2023-07-13T03:31:35;22.50;85.30
12254;DHT22;6189;52.526;13.390;2023-07-13T03:34:23;22.30;86.00
12254;DHT22;6189;52.526;13.390;2023-07-13T03:37:11;22.20;86.50
12254;DHT22;6189;52.526;13.390;2023-07-13T03:39:58;22.10;86.80
12254;DHT22;6189;52.526;13.390;2023-07-13T03:42:45;21.90;87.70
12254;DHT22;6189;52.526;13.390;2023-07-13T03:45:32;21.80;88.50
12254;DHT22;6189;52.526;13.390;2023-07-13T03:48:19;21.80;88.80
12254;DHT22;6189;52.526;13.390;2023-07-13T03:51:06;21.80;89.10
12254;DHT22;6189;52.526;13.390;2023-07-13T03:53:54;21.70;89.60
12254;DHT22;6189;52.526;13.390;2023-07-13T03:56:41;21.60;90.10
12254;DHT22;6189;52.526;13.390;2023-07-13T03:59:28;21.70;90.10
12254;DHT22;6189;52.526;13.390;2023-07-13T04:02:15;21.70;90.10
12254;DHT22;6189;52.526;13.390;2023-07-13T04:05:03;21.70;90.00
12254;DHT22;6189;52.526;13.390;2023-07-13T04:07:50;21.80;90.10
12254;DHT22;6189;52.526;13.390;2023-07-13T04:10:38;21.80;90.00
12254;DHT22;6189;52.526;13.390;2023-07-13T04:13:26;21.90;90.10
12254;DHT22;6189;52.526;13.390;2023-07-13T04:16:13;21.90;90.00
12254;DHT22;6189;52.526;13.390;2023-07-13T04:19:00;21.90;89.70
12254;DHT22;6189;52.526;13.390;2023-07-13T04:21:47;21.90;90.20
12254;DHT22;6189;52.526;13.390;2023-07-13T04:24:34;21.90;90.00
12254;DHT22;6189;52.526;13.390;2023-07-13T04:27:22;21.90;90.00
12254;DHT22;6189;52.526;13.390;2023-07-13T04:30:09;21.90;89.80
12254;DHT22;6189;52.526;13.390;2023-07-13T04:32:56;21.80;90.20
12254;DHT22;6189;52.526;13.390;2023-07-13T04:35:43;21.80;90.30
12254;DHT22;6189;52.526;13.390;2023-07-13T04:38:32;21.90;90.10
12254;DHT22;6189;52.526;13.390;2023-07-13T04:41:20;21.80;90.40
12254;DHT22;6189;52.526;13.390;2023-07-13T04:44:08;21.90;90.20
12254;DHT22;6189;52.526;13.390;2023-07-13T04:46:55;21.90;90.30
12254;DHT22;6189;52.526;13.390;2023-07-13T04:49:42;21.90;90.10
12254;DHT22;6189;52.526;13.390;2023-07-13T04:52:29;21.90;90.30
12254;DHT22;6189;52.526;13.390;2023-07-13T04:55:18;22.00;90.30
12254;DHT22;6189;52.526;13.390;2023-07-13T04:58:06;22.00;90.40
12254;DHT22;6189;52.526;13.390;2023-07-13T05:00:54;22.10;90.30
12254;DHT22;6189;52.526;13.390;2023-07-13T05:03:45;22.00;90.10
12254;DHT22;6189;52.526;13.390;2023-07-13T05:06:32;22.00;90.00
12254;DHT22;6189;52.526;13.390;2023-07-13T05:09:19;21.90;90.10
12254;DHT22;6189;52.526;13.390;2023-07-13T05:12:07;22.00;90.30
12254;DHT22;6189;52.526;13.390;2023-07-13T05:14:54;22.00;90.20
12254;DHT22;6189;52.526;13.390;2023-07-13T05:17:42;22.00;90.10
12254;DHT22;6189;52.526;13.390;2023-07-13T05:20:29;22.00;90.30
12254;DHT22;6189;52.526;13.390;2023-07-13T05:23:16;22.10;90.20
12254;DHT22;6189;52.526;13.390;2023-07-13T05:26:03;22.00;90.50
12254;DHT22;6189;52.526;13.390;2023-07-13T05:28:50;22.10;90.30
12254;DHT22;6189;52.526;13.390;2023-07-13T05:31:37;22.10;90.20
12254;DHT22;6189;52.526;13.390;2023-07-13T05:34:26;22.10;90.40
12254;DHT22;6189;52.526;13.390;2023-07-13T05:37:13;22.20;90.30
12254;DHT22;6189;52.526;13.390;2023-07-13T05:40:00;22.20;90.00
12254;DHT22;6189;52.526;13.390;2023-07-13T05:42:47;22.20;90.00
12254;DHT22;6189;52.526;13.390;2023-07-13T05:45:34;22.20;90.00
12254;DHT22;6189;52.526;13.390;2023-07-13T05:48:21;22.20;90.30
12254;DHT22;6189;52.526;13.390;2023-07-13T05:51:09;22.30;90.00
12254;DHT22;6189;52.526;13.390;2023-07-13T05:53:56;22.30;90.30
12254;DHT22;6189;52.526;13.390;2023-07-13T05:56:43;22.30;90.00
12254;DHT22;6189;52.526;13.390;2023-07-13T05:59:30;22.40;90.10
12254;DHT22;6189;52.526;13.390;2023-07-13T06:02:17;22.30;90.20
12254;DHT22;6189;52.526;13.390;2023-07-13T06:05:04;22.40;89.80
12254;DHT22;6189;52.526;13.390;2023-07-13T06:07:53;22.40;89.80
12254;DHT22;6189;52.526;13.390;2023-07-13T06:10:40;22.40;90.00
12254;DHT22;6189;52.526;13.390;2023-07-13T06:13:27;22.40;89.50
12254;DHT22;6189;52.526;13.390;2023-07-13T06:16:14;22.40;90.10
12254;DHT22;6189;52.526;13.390;2023-07-13T06:19:01;22.50;89.90
12254;DHT22;6189;52.526;13.390;2023-07-13T06:21:48;22.50;90.00
12254;DHT22;6189;52.526;13.390;2023-07-13T06:24:36;22.60;89.80
12254;DHT22;6189;52.526;13.390;2023-07-13T06:27:24;22.60;89.40
12254;DHT22;6189;52.526;13.390;2023-07-13T06:30:11;22.60;89.20
12254;DHT22;6189;52.526;13.390;2023-07-13T06:32:58;22.60;88.40
12254;DHT22;6189;52.526;13.390;2023-07-13T06:35:45;22.70;88.00
12254;DHT22;6189;52.526;13.390;2023-07-13T06:38:32;22.70;88.60
12254;DHT22;6189;52.526;13.390;2023-07-13T06:41:20;22.80;88.50
12254;DHT22;6189;52.526;13.390;2023-07-13T06:44:08;22.70;88.60
12254;DHT22;6189;52.526;13.390;2023-07-13T06:46:55;22.90;89.40
12254;DHT22;6189;52.526;13.390;2023-07-13T06:49:42;22.90;88.50
12254;DHT22;6189;52.526;13.390;2023-07-13T06:52:29;23.10;89.00
12254;DHT22;6189;52.526;13.390;2023-07-13T06:55:16;23.20;88.00
12254;DHT22;6189;52.526;13.390;2023-07-13T06:58:04;23.30;88.60
12254;DHT22;6189;52.526;13.390;2023-07-13T07:00:52;23.20;87.50
12254;DHT22;6189;52.526;13.390;2023-07-13T07:03:39;23.30;87.10
12254;DHT22;6189;52.526;13.390;2023-07-13T07:06:26;23.40;88.50
12254;DHT22;6189;52.526;13.390;2023-07-13T07:09:13;23.40;87.10
12254;DHT22;6189;52.526;13.390;2023-07-13T07:12:02;23.50;87.20
12254;DHT22;6189;52.526;13.390;2023-07-13T07:14:50;23.50;85.30
12254;DHT22;6189;52.526;13.390;2023-07-13T07:17:37;23.50;84.70
12254;DHT22;6189;52.526;13.390;2023-07-13T07:20:24;23.50;84.00
12254;DHT22;6189;52.526;13.390;2023-07-13T07:23:12;23.40;83.60
12254;DHT22;6189;52.526;13.390;2023-07-13T07:26:00;23.50;84.00
12254;DHT22;6189;52.526;13.390;2023-07-13T07:28:47;23.50;84.40
12254;DHT22;6189;52.526;13.390;2023-07-13T07:31:35;23.60;84.10
12254;DHT22;6189;52.526;13.390;2023-07-13T07:34:23;23.70;84.60
12254;DHT22;6189;52.526;13.390;2023-07-13T07:37:10;23.70;81.70
12254;DHT22;6189;52.526;13.390;2023-07-13T07:39:57;23.70;82.30
12254;DHT22;6189;52.526;13.390;2023-07-13T07:42:44;23.70;82.00
12254;DHT22;6189;52.526;13.390;2023-07-13T07:45:31;23.80;83.00
12254;DHT22;6189;52.526;13.390;2023-07-13T07:48:20;23.90;84.00
12254;DHT22;6189;52.526;13.390;2023-07-13T07:51:07;23.90;83.80
12254;DHT22;6189;52.526;13.390;2023-07-13T07:53:54;23.90;83.50
12254;DHT22;6189;52.526;13.390;2023-07-13T07:56:41;23.90;82.30
12254;DHT22;6189;52.526;13.390;2023-07-13T07:59:28;23.90;82.20
12254;DHT22;6189;52.526;13.390;2023-07-13T08:02:15;23.90;81.00
12254;DHT22;6189;52.526;13.390;2023-07-13T08:05:03;23.90;80.10
12254;DHT22;6189;52.526;13.390;2023-07-13T08:07:50;23.80;80.10
12254;DHT22;6189;52.526;13.390;2023-07-13T08:10:37;23.90;80.90
12254;DHT22;6189;52.526;13.390;2023-07-13T08:13:24;23.90;80.90
12254;DHT22;6189;52.526;13.390;2023-07-13T08:16:11;24.00;81.10
12254;DHT22;6189;52.526;13.390;2023-07-13T08:18:58;24.00;80.90
12254;DHT22;6189;52.526;13.390;2023-07-13T08:21:47;24.00;80.60
12254;DHT22;6189;52.526;13.390;2023-07-13T08:24:34;24.00;80.90
12254;DHT22;6189;52.526;13.390;2023-07-13T08:27:22;24.10;81.20
12254;DHT22;6189;52.526;13.390;2023-07-13T08:30:09;24.10;80.40
12254;DHT22;6189;52.526;13.390;2023-07-13T08:32:56;24.20;80.00
12254;DHT22;6189;52.526;13.390;2023-07-13T08:35:45;24.30;79.60
12254;DHT22;6189;52.526;13.390;2023-07-13T08:38:33;24.30;79.10
12254;DHT22;6189;52.526;13.390;2023-07-13T08:41:20;24.30;78.70
12254;DHT22;6189;52.526;13.390;2023-07-13T08:44:11;24.20;80.30
12254;DHT22;6189;52.526;13.390;2023-07-13T08:47:02;24.30;78.90
12254;DHT22;6189;52.526;13.390;2023-07-13T08:49:49;24.30;78.90
12254;DHT22;6189;52.526;13.390;2023-07-13T08:52:38;24.30;78.00
12254;DHT22;6189;52.526;13.390;2023-07-13T08:55:29;24.30;78.30
12254;DHT22;6189;52.526;13.390;2023-07-13T08:58:19;24.30;77.10
12254;DHT22;6189;52.526;13.390;2023-07-13T09:01:09;24.30;76.90
12254;DHT22;6189;52.526;13.390;2023-07-13T09:04:04;24.40;78.10
12254;DHT22;6189;52.526;13.390;2023-07-13T09:06:55;24.40;77.90
12254;DHT22;6189;52.526;13.390;2023-07-13T09:09:49;24.50;77.10
12254;DHT22;6189;52.526;13.390;2023-07-13T09:12:44;24.50;76.80
12254;DHT22;6189;52.526;13.390;2023-07-13T09:15:34;24.60;76.60
12254;DHT22;6189;52.526;13.390;2023-07-13T09:18:23;24.60;76.60
12254;DHT22;6189;52.526;13.390;2023-07-13T09:21:13;24.70;75.20
12254;DHT22;6189;52.526;13.390;2023-07-13T09:24:06;24.70;74.70
12254;DHT22;6189;52.526;13.390;2023-07-13T09:27:00;24.80;73.30
12254;DHT22;6189;52.526;13.390;2023-07-13T09:29:50;24.90;73.10
12254;DHT22;6189;52.526;13.390;2023-07-13T09:32:39;24.90;71.40
12254;DHT22;6189;52.526;13.390;2023-07-13T09:35:29;25.00;70.10
12254;DHT22;6189;52.526;13.390;2023-07-13T09:38:17;25.10;70.40
12254;DHT22;6189;52.526;13.390;2023-07-13T09:41:09;25.10;70.20
12254;DHT22;6189;52.526;13.390;2023-07-13T09:44:01;25.20;69.60
12254;DHT22;6189;52.526;13.390;2023-07-13T09:46:51;25.30;67.00
12254;DHT22;6189;52.526;13.390;2023-07-13T09:49:39;25.30;66.30
12254;DHT22;6189;52.526;13.390;2023-07-13T09:52:26;25.30;67.20
12254;DHT22;6189;52.526;13.390;2023-07-13T09:55:24;25.40;67.30
12254;DHT22;6189;52.526;13.390;2023-07-13T09:58:13;25.30;67.20
12254;DHT22;6189;52.526;13.390;2023-07-13T10:01:01;25.30;67.20
12254;DHT22;6189;52.526;13.390;2023-07-13T10:03:54;25.40;67.50
12254;DHT22;6189;52.526;13.390;2023-07-13T10:06:41;25.50;67.80
12254;DHT22;6189;52.526;13.390;2023-07-13T10:09:28;25.60;68.00
12254;DHT22;6189;52.526;13.390;2023-07-13T10:12:15;25.70;66.90
12254;DHT22;6189;52.526;13.390;2023-07-13T10:15:03;25.90;67.10
12254;DHT22;6189;52.526;13.390;2023-07-13T10:17:55;26.00;67.20
12254;DHT22;6189;52.526;13.390;2023-07-13T10:20:45;26.20;66.30
12254;DHT22;6189;52.526;13.390;2023-07-13T10:23:32;26.30;65.70
12254;DHT22;6189;52.526;13.390;2023-07-13T10:26:21;26.50;66.00
12254;DHT22;6189;52.526;13.390;2023-07-13T10:29:11;26.60;65.50
12254;DHT22;6189;52.526;13.390;2023-07-13T10:32:02;26.70;64.10
12254;DHT22;6189;52.526;13.390;2023-07-13T10:34:49;26.60;64.50
12254;DHT22;6189;52.526;13.390;2023-07-13T10:37:41;26.80;63.80
12254;DHT22;6189;52.526;13.390;2023-07-13T10:40:31;26.80;64.20
12254;DHT22;6189;52.526;13.390;2023-07-13T10:43:20;26.90;64.40
12254;DHT22;6189;52.526;13.390;2023-07-13T10:46:10;27.10;64.30
12254;DHT22;6189;52.526;13.390;2023-07-13T10:48:58;27.20;64.00
12254;DHT22;6189;52.526;13.390;2023-07-13T10:51:45;27.40;63.40
12254;DHT22;6189;52.526;13.390;2023-07-13T10:54:34;27.40;60.90
12254;DHT22;6189;52.526;13.390;2023-07-13T10:57:22;27.50;62.10
12254;DHT22;6189;52.526;13.390;2023-07-13T11:00:13;27.70;60.80
12254;DHT22;6189;52.526;13.390;2023-07-13T11:03:01;27.70;61.60
12254;DHT22;6189;52.526;13.390;2023-07-13T11:05:49;27.90;63.10
12254;DHT22;6189;52.526;13.390;2023-07-13T11:08:37;28.00;61.90
12254;DHT22;6189;52.526;13.390;2023-07-13T11:11:38;28.00;61.80
12254;DHT22;6189;52.526;13.390;2023-07-13T11:14:27;28.10;61.80
12254;DHT22;6189;52.526;13.390;2023-07-13T11:17:34;28.10;59.60
12254;DHT22;6189;52.526;13.390;2023-07-13T11:20:23;28.20;60.00
12254;DHT22;6189;52.526;13.390;2023-07-13T11:23:18;28.30;60.00
12254;DHT22;6189;52.526;13.390;2023-07-13T11:26:36;28.30;59.60
12254;DHT22;6189;52.526;13.390;2023-07-13T11:29:24;28.40;59.20
12254;DHT22;6189;52.526;13.390;2023-07-13T11:32:22;28.50;59.00
12254;DHT22;6189;52.526;13.390;2023-07-13T11:35:12;28.60;58.90
12254;DHT22;6189;52.526;13.390;2023-07-13T11:38:01;28.70;58.60
12254;DHT22;6189;52.526;13.390;2023-07-13T11:40:50;28.70;57.20
12254;DHT22;6189;52.526;13.390;2023-07-13T11:43:38;28.70;57.10
12254;DHT22;6189;52.526;13.390;2023-07-13T11:46:27;28.70;55.30
12254;DHT22;6189;52.526;13.390;2023-07-13T11:49:18;28.70;56.80
12254;DHT22;6189;52.526;13.390;2023-07-13T11:52:05;28.80;56.30
12254;DHT22;6189;52.526;13.390;2023-07-13T11:54:53;28.90;55.80
12254;DHT22;6189;52.526;13.390;2023-07-13T11:57:43;29.00;55.90
12254;DHT22;6189;52.526;13.390;2023-07-13T12:00:31;29.00;54.80
12254;DHT22;6189;52.526;13.390;2023-07-13T12:03:21;29.10;55.00
12254;DHT22;6189;52.526;13.390;2023-07-13T12:06:20;29.20;56.10
12254;DHT22;6189;52.526;13.390;2023-07-13T12:09:10;29.30;56.00
12254;DHT22;6189;52.526;13.390;2023-07-13T12:11:58;29.30;54.50
12254;DHT22;6189;52.526;13.390;2023-07-13T12:14:46;29.40;54.70
12254;DHT22;6189;52.526;13.390;2023-07-13T12:17:37;29.20;54.40
12254;DHT22;6189;52.526;13.390;2023-07-13T12:20:26;29.20;55.20
12254;DHT22;6189;52.526;13.390;2023-07-13T12:23:14;29.20;54.00
12254;DHT22;6189;52.526;13.390;2023-07-13T12:26:07;29.10;55.20
12254;DHT22;6189;52.526;13.390;2023-07-13T12:28:58;29.10;55.60
12254;DHT22;6189;52.526;13.390;2023-07-13T12:31:47;29.10;55.30
12254;DHT22;6189;52.526;13.390;2023-07-13T12:34:49;29.10;55.60
12254;DHT22;6189;52.526;13.390;2023-07-13T12:37:37;29.20;54.10
12254;DHT22;6189;52.526;13.390;2023-07-13T12:40:29;29.40;53.70
12254;DHT22;6189;52.526;13.390;2023-07-13T12:43:19;29.40;52.60
12254;DHT22;6189;52.526;13.390;2023-07-13T12:46:14;29.60;53.10
12254;DHT22;6189;52.526;13.390;2023-07-13T12:49:04;29.70;53.10
12254;DHT22;6189;52.526;13.390;2023-07-13T12:51:55;29.70;52.20
12254;DHT22;6189;52.526;13.390;2023-07-13T12:54:53;29.70;51.30
12254;DHT22;6189;52.526;13.390;2023-07-13T12:57:44;29.70;51.70
12254;DHT22;6189;52.526;13.390;2023-07-13T13:00:35;29.80;51.60
12254;DHT22;6189;52.526;13.390;2023-07-13T13:03:26;29.70;51.30
12254;DHT22;6189;52.526;13.390;2023-07-13T13:06:20;29.60;51.70
12254;DHT22;6189;52.526;13.390;2023-07-13T13:09:09;29.50;51.90
12254;DHT22;6189;52.526;13.390;2023-07-13T13:12:00;29.50;52.60
12254;DHT22;6189;52.526;13.390;2023-07-13T13:14:47;29.50;52.10
12254;DHT22;6189;52.526;13.390;2023-07-13T13:17:35;29.50;51.50
12254;DHT22;6189;52.526;13.390;2023-07-13T13:20:22;29.50;51.80
12254;DHT22;6189;52.526;13.390;2023-07-13T13:23:12;29.60;52.90
12254;DHT22;6189;52.526;13.390;2023-07-13T13:25:59;29.60;53.60
12254;DHT22;6189;52.526;13.390;2023-07-13T13:28:48;29.60;52.80
12254;DHT22;6189;52.526;13.390;2023-07-13T13:31:35;29.60;52.50
12254;DHT22;6189;52.526;13.390;2023-07-13T13:34:23;29.60;52.70
12254;DHT22;6189;52.526;13.390;2023-07-13T13:37:15;29.70;52.60
12254;DHT22;6189;52.526;13.390;2023-07-13T13:40:04;29.90;52.10
12254;DHT22;6189;52.526;13.390;2023-07-13T13:42:52;29.80;51.90
12254;DHT22;6189;52.526;13.390;2023-07-13T13:45:42;29.50;52.00
12254;DHT22;6189;52.526;13.390;2023-07-13T13:48:30;29.30;51.70
12254;DHT22;6189;52.526;13.390;2023-07-13T13:51:18;29.10;52.10
12254;DHT22;6189;52.526;13.390;2023-07-13T13:54:08;29.00;52.10
12254;DHT22;6189;52.526;13.390;2023-07-13T13:56:56;29.00;52.60
12254;DHT22;6189;52.526;13.390;2023-07-13T13:59:44;28.80;52.90
12254;DHT22;6189;52.526;13.390;2023-07-13T14:02:33;28.90;53.50
12254;DHT22;6189;52.526;13.390;2023-07-13T14:05:20;29.00;52.00
12254;DHT22;6189;52.526;13.390;2023-07-13T14:08:09;29.00;52.80
12254;DHT22;6189;52.526;13.390;2023-07-13T14:10:58;29.10;52.90
12254;DHT22;6189;52.526;13.390;2023-07-13T14:13:48;29.00;52.20
12254;DHT22;6189;52.526;13.390;2023-07-13T14:16:35;28.90;52.20
12254;DHT22;6189;52.526;13.390;2023-07-13T14:19:24;28.80;53.10
12254;DHT22;6189;52.526;13.390;2023-07-13T14:22:13;28.80;52.90
12254;DHT22;6189;52.526;13.390;2023-07-13T14:25:00;28.70;53.50
12254;DHT22;6189;52.526;13.390;2023-07-13T14:27:48;28.50;53.50
12254;DHT22;6189;52.526;13.390;2023-07-13T14:30:36;28.40;54.20
12254;DHT22;6189;52.526;13.390;2023-07-13T14:33:23;28.30;54.10
12254;DHT22;6189;52.526;13.390;2023-07-13T14:36:16;28.20;54.60
12254;DHT22;6189;52.526;13.390;2023-07-13T14:39:09;28.20;54.50
12254;DHT22;6189;52.526;13.390;2023-07-13T14:41:57;28.10;54.50
12254;DHT22;6189;52.526;13.390;2023-07-13T14:44:44;28.10;54.50
12254;DHT22;6189;52.526;13.390;2023-07-13T14:47:31;28.20;54.60
12254;DHT22;6189;52.526;13.390;2023-07-13T14:50:19;28.10;54.50
12254;DHT22;6189;52.526;13.390;2023-07-13T14:53:10;28.00;54.10
12254;DHT22;6189;52.526;13.390;2023-07-13T14:55:57;27.90;54.30
12254;DHT22;6189;52.526;13.390;2023-07-13T14:58:44;27.90;54.30
12254;DHT22;6189;52.526;13.390;2023-07-13T15:01:31;27.80;54.00
12254;DHT22;6189;52.526;13.390;2023-07-13T15:04:18;27.80;54.50
12254;DHT22;6189;52.526;13.390;2023-07-13T15:07:07;27.70;54.30
12254;DHT22;6189;52.526;13.390;2023-07-13T15:09:57;27.70;54.20
12254;DHT22;6189;52.526;13.390;2023-07-13T15:12:44;27.70;53.50
12254;DHT22;6189;52.526;13.390;2023-07-13T15:15:32;27.60;53.00
12254;DHT22;6189;52.526;13.390;2023-07-13T15:18:20;27.60;52.60
12254;DHT22;6189;52.526;13.390;2023-07-13T15:21:08;27.60;53.00
12254;DHT22;6189;52.526;13.390;2023-07-13T15:23:56;27.50;53.50
12254;DHT22;6189;52.526;13.390;2023-07-13T15:26:44;27.40;53.70
12254;DHT22;6189;52.526;13.390;2023-07-13T15:29:34;27.50;53.70
12254;DHT22;6189;52.526;13.390;2023-07-13T15:32:21;27.50;53.90
12254;DHT22;6189;52.526;13.390;2023-07-13T15:35:13;27.50;54.00
12254;DHT22;6189;52.526;13.390;2023-07-13T15:38:00;27.40;54.30
12254;DHT22;6189;52.526;13.390;2023-07-13T15:40:48;27.30;54.00
12254;DHT22;6189;52.526;13.390;2023-07-13T15:43:37;27.20;54.70
12254;DHT22;6189;52.526;13.390;2023-07-13T15:46:24;27.20;55.00
12254;DHT22;6189;52.526;13.390;2023-07-13T15:49:11;27.20;54.70
12254;DHT22;6189;52.526;13.390;2023-07-13T15:51:58;27.10;54.90
12254;DHT22;6189;52.526;13.390;2023-07-13T15:54:45;27.10;55.50
12254;DHT22;6189;52.526;13.390;2023-07-13T15:57:33;27.10;55.50
12254;DHT22;6189;52.526;13.390;2023-07-13T16:00:22;27.10;55.30
12254;DHT22;6189;52.526;13.390;2023-07-13T16:03:09;27.10;55.20
12254;DHT22;6189;52.526;13.390;2023-07-13T16:05:56;27.00;55.70
12254;DHT22;6189;52.526;13.390;2023-07-13T16:08:43;27.00;55.50
12254;DHT22;6189;52.526;13.390;2023-07-13T16:11:32;27.00;55.50
12254;DHT22;6189;52.526;13.390;2023-07-13T16:14:19;27.10;54.70
12254;DHT22;6189;52.526;13.390;2023-07-13T16:17:11;27.10;54.90
12254;DHT22;6189;52.526;13.390;2023-07-13T16:19:59;27.00;54.90
12254;DHT22;6189;52.526;13.390;2023-07-13T16:22:46;27.00;55.70
12254;DHT22;6189;52.526;13.390;2023-07-13T16:25:35;27.00;55.60
12254;DHT22;6189;52.526;13.390;2023-07-13T16:28:22;27.00;55.30
12254;DHT22;6189;52.526;13.390;2023-07-13T16:31:09;27.00;55.30
12254;DHT22;6189;52.526;13.390;2023-07-13T16:33:57;26.90;55.60
12254;DHT22;6189;52.526;13.390;2023-07-13T16:36:45;26.90;55.80
12254;DHT22;6189;52.526;13.390;2023-07-13T16:39:32;26.90;55.70
12254;DHT22;6189;52.526;13.390;2023-07-13T16:42:19;26.90;55.10
12254;DHT22;6189;52.526;13.390;2023-07-13T16:45:07;26.80;55.40
12254;DHT22;6189;52.526;13.390;2023-07-13T16:47:57;26.80;55.00
12254;DHT22;6189;52.526;13.390;2023-07-13T16:50:51;26.70;55.60
12254;DHT22;6189;52.526;13.390;2023-07-13T16:53:39;26.70;55.60
12254;DHT22;6189;52.526;13.390;2023-07-13T16:56:29;26.60;55.10
12254;DHT22;6189;52.526;13.390;2023-07-13T16:59:29;26.60;55.40
12254;DHT22;6189;52.526;13.390;2023-07-13T17:05:25;26.50;55.10
12254;DHT22;6189;52.526;13.390;2023-07-13T17:08:14;26.40;55.40
12254;DHT22;6189;52.526;13.390;2023-07-13T17:11:01;26.00;60.00
12254;DHT22;6189;52.526;13.390;2023-07-13T17:13:48;25.60;63.10
12254;DHT22;6189;52.526;13.390;2023-07-13T17:16:35;25.30;66.10
12254;DHT22;6189;52.526;13.390;2023-07-13T17:19:24;25.00;70.10
12254;DHT22;6189;52.526;13.390;2023-07-13T17:22:12;24.80;72.20
12254;DHT22;6189;52.526;13.390;2023-07-13T17:25:07;24.40;74.20
12254;DHT22;6189;52.526;13.390;2023-07-13T17:27:58;24.30;74.70
12254;DHT22;6189;52.526;13.390;2023-07-13T17:30:45;24.00;75.70
12254;DHT22;6189;52.526;13.390;2023-07-13T17:33:33;23.90;76.20
12254;DHT22;6189;52.526;13.390;2023-07-13T17:36:21;23.80;76.40
12254;DHT22;6189;52.526;13.390;2023-07-13T17:39:12;23.70;76.60
12254;DHT22;6189;52.526;13.390;2023-07-13T17:42:00;23.40;77.80
12254;DHT22;6189;52.526;13.390;2023-07-13T17:44:47;23.30;78.10
12254;DHT22;6189;52.526;13.390;2023-07-13T17:47:33;23.20;78.80